sensor_id;sensor_type;location;lat;lon;timestamp;temperature;humidity
78475;SHT31;67766;51.964;5.660;2024-03-02T00:02:22;11.1;56.5
78475;SHT31;67766;51.964;5.660;2024-03-02T00:04:51;11.1;56.7
78475;SHT31;67766;51.964;5.660;2024-03-02T00:07:21;11.1;56.5
78475;SHT31;67766;51.964;5.660;2024-03-02T00:09:55;11.1;56.7
78475;SHT31;67766;51.964;5.660;2024-03-02T00:12:25;11.1;56.8
78475;SHT31;67766;51.964;5.660;2024-03-02T00:14:55;11.1;57.1
78475;SHT31;67766;51.964;5.660;2024-03-02T00:17:26;11.1;56.9
78475;SHT31;67766;51.964;5.660;2024-03-02T00:19:55;11.1;57.0
78475;SHT31;67766;51.964;5.660;2024-03-02T00:22:25;11.1;56.8
78475;SHT31;67766;51.964;5.660;2024-03-02T00:24:55;11.1;57.0
78475;SHT31;67766;51.964;5.660;2024-03-02T00:27:26;11.1;57.0
78475;SHT31;67766;51.964;5.660;2024-03-02T00:29:56;11.1;57.3
78475;SHT31;67766;51.964;5.660;2024-03-02T00:32:25;11.1;57.3
78475;SHT31;67766;51.964;5.660;2024-03-02T00:34:56;11.1;57.7
78475;SHT31;67766;51.964;5.660;2024-03-02T00:37:25;11.1;58.0
78475;SHT31;67766;51.964;5.660;2024-03-02T00:39:56;11.1;57.4
78475;SHT31;67766;51.964;5.660;2024-03-02T00:42:26;11.1;57.6
78475;SHT31;67766;51.964;5.660;2024-03-02T00:44:55;11.1;57.8
78475;SHT31;67766;51.964;5.660;2024-03-02T00:47:25;11.1;57.7
78475;SHT31;67766;51.964;5.660;2024-03-02T00:49:55;11.1;58.0
78475;SHT31;67766;51.964;5.660;2024-03-02T00:52:24;11.1;58.1
78475;SHT31;67766;51.964;5.660;2024-03-02T00:54:57;11.1;57.9
78475;SHT31;67766;51.964;5.660;2024-03-02T00:57:33;11.1;58.1
78475;SHT31;67766;51.964;5.660;2024-03-02T01:00:03;11.1;58.9
78475;SHT31;67766;51.964;5.660;2024-03-02T01:02:37;11.0;60.5
78475;SHT31;67766;51.964;5.660;2024-03-02T01:05:08;11.0;61.1
78475;SHT31;67766;51.964;5.660;2024-03-02T01:07:37;11.0;61.5
78475;SHT31;67766;51.964;5.660;2024-03-02T01:10:07;10.9;61.8
78475;SHT31;67766;51.964;5.660;2024-03-02T01:12:38;10.9;62.3
78475;SHT31;67766;51.964;5.660;2024-03-02T01:15:08;10.8;62.4
78475;SHT31;67766;51.964;5.660;2024-03-02T01:17:37;10.8;62.8
78475;SHT31;67766;51.964;5.660;2024-03-02T01:20:09;10.8;62.9
78475;SHT31;67766;51.964;5.660;2024-03-02T01:22:39;10.7;63.3
78475;SHT31;67766;51.964;5.660;2024-03-02T01:25:12;10.7;63.6
78475;SHT31;67766;51.964;5.660;2024-03-02T01:27:41;10.6;63.8
78475;SHT31;67766;51.964;5.660;2024-03-02T01:30:11;10.6;64.5
78475;SHT31;67766;51.964;5.660;2024-03-02T01:32:41;10.6;64.5
78475;SHT31;67766;51.964;5.660;2024-03-02T01:35:10;10.6;64.1
78475;SHT31;67766;51.964;5.660;2024-03-02T01:37:40;10.5;64.3
78475;SHT31;67766;51.964;5.660;2024-03-02T01:40:11;10.5;64.7
78475;SHT31;67766;51.964;5.660;2024-03-02T01:42:40;10.5;65.0
78475;SHT31;67766;51.964;5.660;2024-03-02T01:45:12;10.5;65.0
78475;SHT31;67766;51.964;5.660;2024-03-02T01:47:42;10.4;65.2
78475;SHT31;67766;51.964;5.660;2024-03-02T01:50:12;10.4;65.2
78475;SHT31;67766;51.964;5.660;2024-03-02T01:52:42;10.4;65.3
78475;SHT31;67766;51.964;5.660;2024-03-02T01:55:11;10.4;65.6
78475;SHT31;67766;51.964;5.660;2024-03-02T01:57:41;10.4;65.3
78475;SHT31;67766;51.964;5.660;2024-03-02T02:00:13;10.4;65.5
78475;SHT31;67766;51.964;5.660;2024-03-02T02:02:42;10.4;65.4
78475;SHT31;67766;51.964;5.660;2024-03-02T02:05:13;10.4;65.3
78475;SHT31;67766;51.964;5.660;2024-03-02T02:07:43;10.4;65.4
78475;SHT31;67766;51.964;5.660;2024-03-02T02:10:12;10.4;65.4
78475;SHT31;67766;51.964;5.660;2024-03-02T02:12:42;10.4;65.4
78475;SHT31;67766;51.964;5.660;2024-03-02T02:15:26;10.4;65.3
78475;SHT31;67766;51.964;5.660;2024-03-02T02:17:58;10.4;65.3
78475;SHT31;67766;51.964;5.660;2024-03-02T02:20:28;10.4;65.3
78475;SHT31;67766;51.964;5.660;2024-03-02T02:22:58;10.4;65.6
78475;SHT31;67766;51.964;5.660;2024-03-02T02:25:29;10.4;65.3
78475;SHT31;67766;51.964;5.660;2024-03-02T02:28:01;10.3;65.3
78475;SHT31;67766;51.964;5.660;2024-03-02T02:30:32;10.3;65.4
78475;SHT31;67766;51.964;5.660;2024-03-02T02:33:04;10.3;65.3
78475;SHT31;67766;51.964;5.660;2024-03-02T02:35:33;10.3;65.3
78475;SHT31;67766;51.964;5.660;2024-03-02T02:38:03;10.3;65.7
78475;SHT31;67766;51.964;5.660;2024-03-02T02:40:33;10.3;66.0
78475;SHT31;67766;51.964;5.660;2024-03-02T02:43:03;10.3;66.1
78475;SHT31;67766;51.964;5.660;2024-03-02T02:45:34;10.3;66.5
78475;SHT31;67766;51.964;5.660;2024-03-02T02:48:04;10.3;66.6
78475;SHT31;67766;51.964;5.660;2024-03-02T02:50:33;10.3;66.8
78475;SHT31;67766;51.964;5.660;2024-03-02T02:53:03;10.3;66.9
78475;SHT31;67766;51.964;5.660;2024-03-02T02:55:33;10.3;67.3
78475;SHT31;67766;51.964;5.660;2024-03-02T02:58:05;10.3;67.2
78475;SHT31;67766;51.964;5.660;2024-03-02T03:00:37;10.3;67.3
78475;SHT31;67766;51.964;5.660;2024-03-02T03:03:06;10.3;67.1
78475;SHT31;67766;51.964;5.660;2024-03-02T03:05:35;10.2;67.1
78475;SHT31;67766;51.964;5.660;2024-03-02T03:08:05;10.2;66.9
78475;SHT31;67766;51.964;5.660;2024-03-02T03:10:35;10.2;66.7
78475;SHT31;67766;51.964;5.660;2024-03-02T03:13:04;10.2;66.4
78475;SHT31;67766;51.964;5.660;2024-03-02T03:15:37;10.1;67.0
78475;SHT31;67766;51.964;5.660;2024-03-02T03:18:08;10.0;66.9
78475;SHT31;67766;51.964;5.660;2024-03-02T03:20:38;10.0;67.5
78475;SHT31;67766;51.964;5.660;2024-03-02T03:23:08;9.9;67.3
78475;SHT31;67766;51.964;5.660;2024-03-02T03:25:42;9.8;67.1
78475;SHT31;67766;51.964;5.660;2024-03-02T03:28:12;9.8;67.9
78475;SHT31;67766;51.964;5.660;2024-03-02T03:30:41;9.8;68.0
78475;SHT31;67766;51.964;5.660;2024-03-02T03:33:11;9.7;68.1
78475;SHT31;67766;51.964;5.660;2024-03-02T03:35:43;9.7;68.0
78475;SHT31;67766;51.964;5.660;2024-03-02T03:38:12;9.7;68.3
78475;SHT31;67766;51.964;5.660;2024-03-02T03:40:42;9.7;67.9
78475;SHT31;67766;51.964;5.660;2024-03-02T03:43:12;9.7;67.8
78475;SHT31;67766;51.964;5.660;2024-03-02T03:45:41;9.7;67.8
78475;SHT31;67766;51.964;5.660;2024-03-02T03:48:11;9.6;68.3
78475;SHT31;67766;51.964;5.660;2024-03-02T03:50:42;9.6;68.4
78475;SHT31;67766;51.964;5.660;2024-03-02T03:53:12;9.6;68.2
78475;SHT31;67766;51.964;5.660;2024-03-02T03:55:42;9.6;68.1
78475;SHT31;67766;51.964;5.660;2024-03-02T03:58:14;9.6;68.2
78475;SHT31;67766;51.964;5.660;2024-03-02T04:00:44;9.6;68.4
78475;SHT31;67766;51.964;5.660;2024-03-02T04:03:13;9.6;68.4
78475;SHT31;67766;51.964;5.660;2024-03-02T04:05:43;9.7;68.1
78475;SHT31;67766;51.964;5.660;2024-03-02T04:08:12;9.7;68.3
78475;SHT31;67766;51.964;5.660;2024-03-02T04:10:42;9.7;68.2
78475;SHT31;67766;51.964;5.660;2024-03-02T04:13:11;9.7;67.6
78475;SHT31;67766;51.964;5.660;2024-03-02T04:15:41;9.7;67.3
78475;SHT31;67766;51.964;5.660;2024-03-02T04:18:11;9.7;67.1
78475;SHT31;67766;51.964;5.660;2024-03-02T04:20:40;9.7;66.8
78475;SHT31;67766;51.964;5.660;2024-03-02T04:23:10;9.7;66.7
78475;SHT31;67766;51.964;5.660;2024-03-02T04:25:40;9.7;66.2
78475;SHT31;67766;51.964;5.660;2024-03-02T04:28:09;9.7;66.7
78475;SHT31;67766;51.964;5.660;2024-03-02T04:30:40;9.7;66.4
78475;SHT31;67766;51.964;5.660;2024-03-02T04:33:09;9.7;66.5
78475;SHT31;67766;51.964;5.660;2024-03-02T04:35:39;9.7;66.0
78475;SHT31;67766;51.964;5.660;2024-03-02T04:38:11;9.7;66.0
78475;SHT31;67766;51.964;5.660;2024-03-02T04:40:40;9.7;65.7
78475;SHT31;67766;51.964;5.660;2024-03-02T04:43:10;9.7;65.6
78475;SHT31;67766;51.964;5.660;2024-03-02T04:45:43;9.7;65.5
78475;SHT31;67766;51.964;5.660;2024-03-02T04:48:13;9.6;65.8
78475;SHT31;67766;51.964;5.660;2024-03-02T04:50:42;9.6;65.8
78475;SHT31;67766;51.964;5.660;2024-03-02T04:53:12;9.6;65.9
78475;SHT31;67766;51.964;5.660;2024-03-02T04:55:43;9.6;66.0
78475;SHT31;67766;51.964;5.660;2024-03-02T04:58:29;9.6;66.2
78475;SHT31;67766;51.964;5.660;2024-03-02T05:00:58;9.6;66.1
78475;SHT31;67766;51.964;5.660;2024-03-02T05:03:28;9.6;66.1
78475;SHT31;67766;51.964;5.660;2024-03-02T05:05:57;9.6;66.4
78475;SHT31;67766;51.964;5.660;2024-03-02T05:08:26;9.6;66.6
78475;SHT31;67766;51.964;5.660;2024-03-02T05:10:56;9.5;66.5
78475;SHT31;67766;51.964;5.660;2024-03-02T05:13:30;9.5;66.6
78475;SHT31;67766;51.964;5.660;2024-03-02T05:16:00;9.5;66.7
78475;SHT31;67766;51.964;5.660;2024-03-02T05:18:29;9.5;66.8
78475;SHT31;67766;51.964;5.660;2024-03-02T05:20:59;9.5;66.8
78475;SHT31;67766;51.964;5.660;2024-03-02T05:23:28;9.5;66.8
78475;SHT31;67766;51.964;5.660;2024-03-02T05:25:58;9.5;66.9
78475;SHT31;67766;51.964;5.660;2024-03-02T05:28:29;9.5;66.8
78475;SHT31;67766;51.964;5.660;2024-03-02T05:30:59;9.5;66.7
78475;SHT31;67766;51.964;5.660;2024-03-02T05:33:28;9.6;66.7
78475;SHT31;67766;51.964;5.660;2024-03-02T05:35:59;9.6;66.8
78475;SHT31;67766;51.964;5.660;2024-03-02T05:38:29;9.6;66.8
78475;SHT31;67766;51.964;5.660;2024-03-02T05:40:58;9.6;66.6
78475;SHT31;67766;51.964;5.660;2024-03-02T05:43:28;9.6;66.6
78475;SHT31;67766;51.964;5.660;2024-03-02T05:45:57;9.6;66.6
78475;SHT31;67766;51.964;5.660;2024-03-02T05:48:27;9.7;66.3
78475;SHT31;67766;51.964;5.660;2024-03-02T05:50:56;9.7;66.4
78475;SHT31;67766;51.964;5.660;2024-03-02T05:53:26;9.7;66.6
78475;SHT31;67766;51.964;5.660;2024-03-02T05:55:55;9.7;66.1
78475;SHT31;67766;51.964;5.660;2024-03-02T05:58:25;9.7;65.4
78475;SHT31;67766;51.964;5.660;2024-03-02T06:01:02;9.8;65.3
78475;SHT31;67766;51.964;5.660;2024-03-02T06:03:32;9.8;64.8
78475;SHT31;67766;51.964;5.660;2024-03-02T06:06:01;9.8;64.6
78475;SHT31;67766;51.964;5.660;2024-03-02T06:08:31;9.7;64.5
78475;SHT31;67766;51.964;5.660;2024-03-02T06:11:01;9.7;64.5
78475;SHT31;67766;51.964;5.660;2024-03-02T06:13:32;9.7;64.3
78475;SHT31;67766;51.964;5.660;2024-03-02T06:16:02;9.7;64.4
78475;SHT31;67766;51.964;5.660;2024-03-02T06:18:31;9.7;64.5
78475;SHT31;67766;51.964;5.660;2024-03-02T06:21:00;9.6;64.5
78475;SHT31;67766;51.964;5.660;2024-03-02T06:23:30;9.6;64.6
78475;SHT31;67766;51.964;5.660;2024-03-02T06:26:02;9.6;64.5
78475;SHT31;67766;51.964;5.660;2024-03-02T06:28:31;9.6;64.7
78475;SHT31;67766;51.964;5.660;2024-03-02T06:31:01;9.6;64.4
78475;SHT31;67766;51.964;5.660;2024-03-02T06:33:31;9.5;64.6
78475;SHT31;67766;51.964;5.660;2024-03-02T06:36:01;9.5;64.4
78475;SHT31;67766;51.964;5.660;2024-03-02T06:38:30;9.4;64.7
78475;SHT31;67766;51.964;5.660;2024-03-02T06:41:02;9.4;65.1
78475;SHT31;67766;51.964;5.660;2024-03-02T06:43:32;9.4;64.8
78475;SHT31;67766;51.964;5.660;2024-03-02T06:46:01;9.4;63.8
78475;SHT31;67766;51.964;5.660;2024-03-02T06:48:33;9.4;63.7
78475;SHT31;67766;51.964;5.660;2024-03-02T06:51:03;9.3;64.1
78475;SHT31;67766;51.964;5.660;2024-03-02T06:53:33;9.3;64.2
78475;SHT31;67766;51.964;5.660;2024-03-02T06:56:03;9.3;64.5
78475;SHT31;67766;51.964;5.660;2024-03-02T06:58:32;9.3;64.3
78475;SHT31;67766;51.964;5.660;2024-03-02T07:01:02;9.3;64.5
78475;SHT31;67766;51.964;5.660;2024-03-02T07:03:32;9.3;64.4
78475;SHT31;67766;51.964;5.660;2024-03-02T07:06:03;9.3;64.6
78475;SHT31;67766;51.964;5.660;2024-03-02T07:08:33;9.3;64.7
78475;SHT31;67766;51.964;5.660;2024-03-02T07:11:05;9.4;64.9
78475;SHT31;67766;51.964;5.660;2024-03-02T07:13:34;9.4;64.7
78475;SHT31;67766;51.964;5.660;2024-03-02T07:16:04;9.4;65.0
78475;SHT31;67766;51.964;5.660;2024-03-02T07:18:56;9.5;64.9
78475;SHT31;67766;51.964;5.660;2024-03-02T07:21:26;9.6;64.6
78475;SHT31;67766;51.964;5.660;2024-03-02T07:23:56;9.6;64.5
78475;SHT31;67766;51.964;5.660;2024-03-02T07:26:26;9.7;64.5
78475;SHT31;67766;51.964;5.660;2024-03-02T07:28:58;9.8;63.8
78475;SHT31;67766;51.964;5.660;2024-03-02T07:31:27;9.9;63.9
78475;SHT31;67766;51.964;5.660;2024-03-02T07:33:58;10.0;63.3
78475;SHT31;67766;51.964;5.660;2024-03-02T07:36:27;10.2;63.1
78475;SHT31;67766;51.964;5.660;2024-03-02T07:38:57;10.3;62.9
78475;SHT31;67766;51.964;5.660;2024-03-02T07:41:27;10.4;62.8
78475;SHT31;67766;51.964;5.660;2024-03-02T07:43:56;10.6;62.5
78475;SHT31;67766;51.964;5.660;2024-03-02T07:46:26;10.7;62.1
78475;SHT31;67766;51.964;5.660;2024-03-02T07:48:55;10.9;61.0
78475;SHT31;67766;51.964;5.660;2024-03-02T07:51:25;11.0;60.3
78475;SHT31;67766;51.964;5.660;2024-03-02T07:53:54;11.2;60.6
78475;SHT31;67766;51.964;5.660;2024-03-02T07:56:23;11.3;59.5
78475;SHT31;67766;51.964;5.660;2024-03-02T07:58:53;11.4;59.6
78475;SHT31;67766;51.964;5.660;2024-03-02T08:01:26;11.5;59.0
78475;SHT31;67766;51.964;5.660;2024-03-02T08:03:57;11.6;58.3
78475;SHT31;67766;51.964;5.660;2024-03-02T08:06:27;11.7;58.5
78475;SHT31;67766;51.964;5.660;2024-03-02T08:08:58;11.8;58.2
78475;SHT31;67766;51.964;5.660;2024-03-02T08:11:28;11.9;57.9
78475;SHT31;67766;51.964;5.660;2024-03-02T08:13:58;11.9;58.1
78475;SHT31;67766;51.964;5.660;2024-03-02T08:16:29;12.0;56.9
78475;SHT31;67766;51.964;5.660;2024-03-02T08:19:00;12.1;56.5
78475;SHT31;67766;51.964;5.660;2024-03-02T08:21:32;12.1;56.1
78475;SHT31;67766;51.964;5.660;2024-03-02T08:24:03;12.1;55.6
78475;SHT31;67766;51.964;5.660;2024-03-02T08:26:33;12.1;55.4
78475;SHT31;67766;51.964;5.660;2024-03-02T08:29:03;12.1;55.7
78475;SHT31;67766;51.964;5.660;2024-03-02T08:31:35;12.1;55.1
78475;SHT31;67766;51.964;5.660;2024-03-02T08:34:04;12.0;54.9
78475;SHT31;67766;51.964;5.660;2024-03-02T08:36:34;11.9;55.1
78475;SHT31;67766;51.964;5.660;2024-03-02T08:39:03;11.9;55.2
78475;SHT31;67766;51.964;5.660;2024-03-02T08:41:41;11.8;55.8
78475;SHT31;67766;51.964;5.660;2024-03-02T08:44:12;11.8;55.8
78475;SHT31;67766;51.964;5.660;2024-03-02T08:46:44;11.8;55.5
78475;SHT31;67766;51.964;5.660;2024-03-02T08:49:13;11.9;55.0
78475;SHT31;67766;51.964;5.660;2024-03-02T08:51:43;11.9;55.4
78475;SHT31;67766;51.964;5.660;2024-03-02T08:54:17;12.0;55.0
78475;SHT31;67766;51.964;5.660;2024-03-02T08:56:47;12.1;53.9
78475;SHT31;67766;51.964;5.660;2024-03-02T08:59:17;12.2;54.2
78475;SHT31;67766;51.964;5.660;2024-03-02T09:01:46;12.3;54.2
78475;SHT31;67766;51.964;5.660;2024-03-02T09:04:16;12.4;53.1
78475;SHT31;67766;51.964;5.660;2024-03-02T09:06:46;12.5;52.9
78475;SHT31;67766;51.964;5.660;2024-03-02T09:09:18;12.6;52.8
78475;SHT31;67766;51.964;5.660;2024-03-02T09:11:48;12.7;52.1
78475;SHT31;67766;51.964;5.660;2024-03-02T09:14:17;12.8;51.6
78475;SHT31;67766;51.964;5.660;2024-03-02T09:16:47;13.0;51.6
78475;SHT31;67766;51.964;5.660;2024-03-02T09:19:17;13.2;51.4
78475;SHT31;67766;51.964;5.660;2024-03-02T09:21:48;13.4;50.6
78475;SHT31;67766;51.964;5.660;2024-03-02T09:24:17;13.6;50.1
78475;SHT31;67766;51.964;5.660;2024-03-02T09:26:49;13.9;49.4
78475;SHT31;67766;51.964;5.660;2024-03-02T09:29:18;14.0;48.1
78475;SHT31;67766;51.964;5.660;2024-03-02T09:31:48;14.1;47.6
78475;SHT31;67766;51.964;5.660;2024-03-02T09:34:18;14.2;48.5
78475;SHT31;67766;51.964;5.660;2024-03-02T09:36:48;14.3;48.7
78475;SHT31;67766;51.964;5.660;2024-03-02T09:39:19;14.5;47.8
78475;SHT31;67766;51.964;5.660;2024-03-02T09:41:49;14.6;47.6
78475;SHT31;67766;51.964;5.660;2024-03-02T09:44:19;14.7;47.2
78475;SHT31;67766;51.964;5.660;2024-03-02T09:46:50;14.9;46.6
78475;SHT31;67766;51.964;5.660;2024-03-02T09:49:22;15.0;46.7
78475;SHT31;67766;51.964;5.660;2024-03-02T09:51:52;15.1;46.3
78475;SHT31;67766;51.964;5.660;2024-03-02T09:54:23;15.2;46.4
78475;SHT31;67766;51.964;5.660;2024-03-02T09:56:52;15.3;46.3
78475;SHT31;67766;51.964;5.660;2024-03-02T09:59:22;15.5;45.8
78475;SHT31;67766;51.964;5.660;2024-03-02T10:01:59;15.6;46.0
78475;SHT31;67766;51.964;5.660;2024-03-02T10:04:30;15.9;45.5
78475;SHT31;67766;51.964;5.660;2024-03-02T10:07:17;16.1;44.5
78475;SHT31;67766;51.964;5.660;2024-03-02T10:09:48;16.3;43.9
78475;SHT31;67766;51.964;5.660;2024-03-02T10:12:19;16.4;43.3
78475;SHT31;67766;51.964;5.660;2024-03-02T10:15:04;16.5;42.2
78475;SHT31;67766;51.964;5.660;2024-03-02T10:17:35;16.6;42.8
78475;SHT31;67766;51.964;5.660;2024-03-02T10:20:24;16.7;41.8
78475;SHT31;67766;51.964;5.660;2024-03-02T10:23:12;16.8;41.1
78475;SHT31;67766;51.964;5.660;2024-03-02T10:25:45;16.9;40.9
78475;SHT31;67766;51.964;5.660;2024-03-02T10:28:15;17.0;41.2
78475;SHT31;67766;51.964;5.660;2024-03-02T10:30:48;17.0;40.8
78475;SHT31;67766;51.964;5.660;2024-03-02T10:33:19;17.1;41.0
78475;SHT31;67766;51.964;5.660;2024-03-02T10:35:50;17.3;41.3
78475;SHT31;67766;51.964;5.660;2024-03-02T10:38:20;17.4;40.7
78475;SHT31;67766;51.964;5.660;2024-03-02T10:40:49;17.5;40.0
78475;SHT31;67766;51.964;5.660;2024-03-02T10:43:20;17.6;39.8
78475;SHT31;67766;51.964;5.660;2024-03-02T10:45:52;17.7;39.3
78475;SHT31;67766;51.964;5.660;2024-03-02T10:48:24;17.8;39.4
78475;SHT31;67766;51.964;5.660;2024-03-02T10:50:55;17.9;40.3
78475;SHT31;67766;51.964;5.660;2024-03-02T10:53:29;18.1;39.5
78475;SHT31;67766;51.964;5.660;2024-03-02T10:55:59;18.3;39.2
78475;SHT31;67766;51.964;5.660;2024-03-02T10:58:33;18.4;38.2
78475;SHT31;67766;51.964;5.660;2024-03-02T11:01:07;18.5;36.9
78475;SHT31;67766;51.964;5.660;2024-03-02T11:03:39;18.6;38.0
78475;SHT31;67766;51.964;5.660;2024-03-02T11:06:11;18.7;37.0
78475;SHT31;67766;51.964;5.660;2024-03-02T11:08:47;18.8;37.5
78475;SHT31;67766;51.964;5.660;2024-03-02T11:11:22;19.0;38.4
78475;SHT31;67766;51.964;5.660;2024-03-02T11:13:58;19.2;37.6
78475;SHT31;67766;51.964;5.660;2024-03-02T11:16:36;19.4;35.5
78475;SHT31;67766;51.964;5.660;2024-03-02T11:19:10;19.5;35.9
78475;SHT31;67766;51.964;5.660;2024-03-02T11:21:41;19.5;35.9
78475;SHT31;67766;51.964;5.660;2024-03-02T11:24:30;19.7;35.1
78475;SHT31;67766;51.964;5.660;2024-03-02T11:27:04;19.8;35.3
78475;SHT31;67766;51.964;5.660;2024-03-02T11:29:46;19.9;34.9
78475;SHT31;67766;51.964;5.660;2024-03-02T11:32:21;19.9;34.5
78475;SHT31;67766;51.964;5.660;2024-03-02T11:34:52;20.0;34.3
78475;SHT31;67766;51.964;5.660;2024-03-02T11:37:24;20.1;33.8
78475;SHT31;67766;51.964;5.660;2024-03-02T11:39:54;20.1;33.5
78475;SHT31;67766;51.964;5.660;2024-03-02T11:42:24;20.2;33.6
78475;SHT31;67766;51.964;5.660;2024-03-02T11:44:56;20.2;32.9
78475;SHT31;67766;51.964;5.660;2024-03-02T11:47:33;20.2;34.2
78475;SHT31;67766;51.964;5.660;2024-03-02T11:50:05;20.4;32.6
78475;SHT31;67766;51.964;5.660;2024-03-02T11:52:36;20.4;32.7
78475;SHT31;67766;51.964;5.660;2024-03-02T11:55:09;20.5;32.2
78475;SHT31;67766;51.964;5.660;2024-03-02T11:57:41;20.5;31.8
78475;SHT31;67766;51.964;5.660;2024-03-02T12:00:19;20.6;32.5
78475;SHT31;67766;51.964;5.660;2024-03-02T12:03:01;20.7;32.0
78475;SHT31;67766;51.964;5.660;2024-03-02T12:05:32;20.8;31.9
78475;SHT31;67766;51.964;5.660;2024-03-02T12:08:04;21.0;32.1
78475;SHT31;67766;51.964;5.660;2024-03-02T12:10:35;21.1;32.0
78475;SHT31;67766;51.964;5.660;2024-03-02T12:13:07;21.3;31.4
78475;SHT31;67766;51.964;5.660;2024-03-02T12:15:39;21.4;31.2
78475;SHT31;67766;51.964;5.660;2024-03-02T12:18:08;21.3;30.8
78475;SHT31;67766;51.964;5.660;2024-03-02T12:20:38;21.2;31.5
78475;SHT31;67766;51.964;5.660;2024-03-02T12:23:08;21.1;31.9
78475;SHT31;67766;51.964;5.660;2024-03-02T12:25:38;21.0;32.5
78475;SHT31;67766;51.964;5.660;2024-03-02T12:28:10;21.0;32.3
78475;SHT31;67766;51.964;5.660;2024-03-02T12:30:42;21.0;32.2
78475;SHT31;67766;51.964;5.660;2024-03-02T12:33:12;21.0;32.7
78475;SHT31;67766;51.964;5.660;2024-03-02T12:35:42;21.0;32.4
78475;SHT31;67766;51.964;5.660;2024-03-02T12:38:11;20.9;32.3
78475;SHT31;67766;51.964;5.660;2024-03-02T12:40:41;20.9;32.4
78475;SHT31;67766;51.964;5.660;2024-03-02T12:43:10;20.8;32.2
78475;SHT31;67766;51.964;5.660;2024-03-02T12:45:40;20.6;32.9
78475;SHT31;67766;51.964;5.660;2024-03-02T12:48:09;20.4;33.5
78475;SHT31;67766;51.964;5.660;2024-03-02T12:50:39;20.2;34.0
78475;SHT31;67766;51.964;5.660;2024-03-02T12:53:16;20.1;34.2
78475;SHT31;67766;51.964;5.660;2024-03-02T12:55:45;19.9;34.2
78475;SHT31;67766;51.964;5.660;2024-03-02T12:58:19;19.7;34.3
78475;SHT31;67766;51.964;5.660;2024-03-02T13:00:48;19.5;35.0
78475;SHT31;67766;51.964;5.660;2024-03-02T13:03:21;19.3;35.8
78475;SHT31;67766;51.964;5.660;2024-03-02T13:05:51;19.2;35.7
78475;SHT31;67766;51.964;5.660;2024-03-02T13:08:22;19.1;35.5
78475;SHT31;67766;51.964;5.660;2024-03-02T13:10:52;19.0;35.8
78475;SHT31;67766;51.964;5.660;2024-03-02T13:13:23;18.8;35.5
78475;SHT31;67766;51.964;5.660;2024-03-02T13:15:55;18.6;36.2
78475;SHT31;67766;51.964;5.660;2024-03-02T13:18:24;18.5;36.9
78475;SHT31;67766;51.964;5.660;2024-03-02T13:20:54;18.4;36.6
78475;SHT31;67766;51.964;5.660;2024-03-02T13:23:23;18.3;37.1
78475;SHT31;67766;51.964;5.660;2024-03-02T13:25:53;18.2;38.0
78475;SHT31;67766;51.964;5.660;2024-03-02T13:28:23;18.1;37.2
78475;SHT31;67766;51.964;5.660;2024-03-02T13:30:53;18.0;38.2
78475;SHT31;67766;51.964;5.660;2024-03-02T13:33:22;17.9;37.6
78475;SHT31;67766;51.964;5.660;2024-03-02T13:35:52;17.9;38.8
78475;SHT31;67766;51.964;5.660;2024-03-02T13:38:22;17.8;37.6
78475;SHT31;67766;51.964;5.660;2024-03-02T13:40:51;17.7;38.2
78475;SHT31;67766;51.964;5.660;2024-03-02T13:43:24;17.7;39.6
78475;SHT31;67766;51.964;5.660;2024-03-02T13:45:54;17.6;37.8
78475;SHT31;67766;51.964;5.660;2024-03-02T13:48:23;17.5;38.1
78475;SHT31;67766;51.964;5.660;2024-03-02T13:50:54;17.5;37.4
78475;SHT31;67766;51.964;5.660;2024-03-02T13:53:23;17.4;37.7
78475;SHT31;67766;51.964;5.660;2024-03-02T13:55:52;17.3;37.9
78475;SHT31;67766;51.964;5.660;2024-03-02T13:58:23;17.3;37.6
78475;SHT31;67766;51.964;5.660;2024-03-02T14:00:52;17.2;37.7
78475;SHT31;67766;51.964;5.660;2024-03-02T14:03:24;17.2;39.0
78475;SHT31;67766;51.964;5.660;2024-03-02T14:05:55;17.1;38.9
78475;SHT31;67766;51.964;5.660;2024-03-02T14:08:26;17.1;38.7
78475;SHT31;67766;51.964;5.660;2024-03-02T14:10:57;17.1;39.5
78475;SHT31;67766;51.964;5.660;2024-03-02T14:13:27;17.1;39.2
78475;SHT31;67766;51.964;5.660;2024-03-02T14:15:59;17.1;39.2
78475;SHT31;67766;51.964;5.660;2024-03-02T14:18:28;17.1;38.8
78475;SHT31;67766;51.964;5.660;2024-03-02T14:20:58;17.1;39.6
78475;SHT31;67766;51.964;5.660;2024-03-02T14:23:27;17.0;39.1
78475;SHT31;67766;51.964;5.660;2024-03-02T14:25:57;17.0;38.8
78475;SHT31;67766;51.964;5.660;2024-03-02T14:28:27;17.0;39.6
78475;SHT31;67766;51.964;5.660;2024-03-02T14:30:57;16.9;39.5
78475;SHT31;67766;51.964;5.660;2024-03-02T14:33:29;16.9;39.5
78475;SHT31;67766;51.964;5.660;2024-03-02T14:35:59;16.9;38.6
78475;SHT31;67766;51.964;5.660;2024-03-02T14:38:30;16.9;40.0
78475;SHT31;67766;51.964;5.660;2024-03-02T14:41:00;16.8;41.1
78475;SHT31;67766;51.964;5.660;2024-03-02T14:43:30;16.8;40.6
78475;SHT31;67766;51.964;5.660;2024-03-02T14:46:00;16.7;40.9
78475;SHT31;67766;51.964;5.660;2024-03-02T14:48:30;16.6;41.4
78475;SHT31;67766;51.964;5.660;2024-03-02T14:51:00;16.6;40.9
78475;SHT31;67766;51.964;5.660;2024-03-02T14:53:31;16.5;41.2
78475;SHT31;67766;51.964;5.660;2024-03-02T14:56:01;16.5;41.5
78475;SHT31;67766;51.964;5.660;2024-03-02T14:58:30;16.5;41.8
78475;SHT31;67766;51.964;5.660;2024-03-02T15:01:00;16.4;42.1
78475;SHT31;67766;51.964;5.660;2024-03-02T15:03:29;16.4;41.4
78475;SHT31;67766;51.964;5.660;2024-03-02T15:05:59;16.4;41.8
78475;SHT31;67766;51.964;5.660;2024-03-02T15:08:28;16.4;41.4
78475;SHT31;67766;51.964;5.660;2024-03-02T15:10:58;16.4;42.6
78475;SHT31;67766;51.964;5.660;2024-03-02T15:13:28;16.3;41.9
78475;SHT31;67766;51.964;5.660;2024-03-02T15:15:58;16.3;42.4
78475;SHT31;67766;51.964;5.660;2024-03-02T15:18:27;16.3;41.9
78475;SHT31;67766;51.964;5.660;2024-03-02T15:20:57;16.2;42.6
78475;SHT31;67766;51.964;5.660;2024-03-02T15:23:28;16.2;43.5
78475;SHT31;67766;51.964;5.660;2024-03-02T15:25:59;16.2;43.7
78475;SHT31;67766;51.964;5.660;2024-03-02T15:28:28;16.1;43.8
78475;SHT31;67766;51.964;5.660;2024-03-02T15:30:58;16.1;43.6
78475;SHT31;67766;51.964;5.660;2024-03-02T15:33:29;16.1;44.3
78475;SHT31;67766;51.964;5.660;2024-03-02T15:36:00;16.0;45.0
78475;SHT31;67766;51.964;5.660;2024-03-02T15:38:30;16.0;45.2
78475;SHT31;67766;51.964;5.660;2024-03-02T15:41:04;16.0;45.0
78475;SHT31;67766;51.964;5.660;2024-03-02T15:43:35;16.0;44.2
78475;SHT31;67766;51.964;5.660;2024-03-02T15:46:06;16.0;44.4
78475;SHT31;67766;51.964;5.660;2024-03-02T15:48:36;16.0;45.4
78475;SHT31;67766;51.964;5.660;2024-03-02T15:51:05;15.9;45.0
78475;SHT31;67766;51.964;5.660;2024-03-02T15:53:35;15.9;45.9
78475;SHT31;67766;51.964;5.660;2024-03-02T15:56:05;15.9;45.6
78475;SHT31;67766;51.964;5.660;2024-03-02T15:58:35;15.9;46.5
78475;SHT31;67766;51.964;5.660;2024-03-02T16:01:07;15.9;46.7
78475;SHT31;67766;51.964;5.660;2024-03-02T16:03:36;15.9;46.7
78475;SHT31;67766;51.964;5.660;2024-03-02T16:06:06;15.9;47.4
78475;SHT31;67766;51.964;5.660;2024-03-02T16:08:36;15.9;47.0
78475;SHT31;67766;51.964;5.660;2024-03-02T16:11:05;15.9;47.4
78475;SHT31;67766;51.964;5.660;2024-03-02T16:13:35;15.9;47.3
78475;SHT31;67766;51.964;5.660;2024-03-02T16:16:05;15.9;47.5
78475;SHT31;67766;51.964;5.660;2024-03-02T16:18:35;15.8;47.1
78475;SHT31;67766;51.964;5.660;2024-03-02T16:21:05;15.8;47.2
78475;SHT31;67766;51.964;5.660;2024-03-02T16:23:35;15.8;47.1
78475;SHT31;67766;51.964;5.660;2024-03-02T16:26:05;15.8;47.4
78475;SHT31;67766;51.964;5.660;2024-03-02T16:28:35;15.7;47.7